Abbeville, Louisiana
Current Conditions -  °F | °C
As of 11:35 PM on Sunday 21 Dec 2014 (Local Time) from KIYA Reporting Station
Haze Haze  
Wind Chill: 50°   Ceiling: 2100
Heat Index: 50°   Visibility: 3mi
Dew Point: 49°   Wind: 0mph
Humidity: 99%   Direction: NA
Pressure: 29.94"   Gusts: NA
Location:  29.97°N, 92.13°W
Report Text: KIYA 220535Z AUTO 00000KT 3SM BR SCT011 OVC021 10/10 A2994 RMK AO2 T00980097 TSNO
Loading
Personal Weather Stations






























Interactive Weather Map New forecast layout! Learn more

10-Day Weather Forecast

Advertisements
Track Severe Weather on mobile